Historyczne dane pomiarowe

Dodano dane terminowe – wersja testowa.

Dane z okresu 1951-2019

Wersja bazy: 1.34 [2019-03-16, lista zmian], aktualizacja planowana na 2019-04-15

Dane meteo z obszaru Polski uzyskane na podstawie danych udostępnionych przez Instytut Meteorologii i Gospodarki Wodnej – Państwowy Instytut Badawczy.

 

Wybierz Datę:    

       

TemperaturaWilgotnośćWiatrCiśnienieOpadyŚniegCzas trwania zjawisk
 Stacja t tx tn tng RH VA  wxwx mslp ppp RRR   cm mm wxwxwxwxwxwxwx
1983-08-14 15.6 20.9 11.0 8.4 63.3- 6.0 3.0---- 0.0------------
1983-08-13 15.3 20.0 12.0 11.2 73.3- 5.0 3.7---- 0.2------------
1983-08-12 17.5 25.5 9.2 6.9 73.0- 4.7 4.0---- 7.0------------
1983-08-11 20.5 28.6 11.0 10.2 67.8- 3.7 1.3---- 0.0------------
1983-08-10 21.2 28.6 12.1 10.9 64.3- 3.3 2.3---- 0.0------------
1983-08-09 21.3 28.1 12.6 11.9 70.3- 2.0 1.7---- 0.0------------
1983-08-08 20.6 26.9 13.9 12.8 76.0- 6.7 2.0---- 0.2------------
1983-08-07 17.9 25.1 8.8 8.4 76.8- 6.3 3.0---- 0.0------------
1983-08-06 15.8 21.6 7.1 6.4 77.0- 7.7 2.7---- 0.1------------
1983-08-05 14.0 17.4 11.5 11.9 91.8- 7.0 2.0---- 0.0------------
1983-08-04 12.8 14.0 10.9 11.3 96.0- 8.0 6.3---- 1.8------------
1983-08-03 14.5 23.0 11.3 8.9 92.5- 8.0 6.3---- 32.5------------
1983-08-02 22.2 31.5 16.7 16.4 71.3- 7.3 2.3---- 1.4------------
1983-08-01 22.9 34.1 7.6 6.4 48.8- 4.3 3.0---- 0.2------------
1983-07-31 18.1 28.0 5.0 3.2 62.5- 0.0 1.0---- 0.0------------
1983-07-30 18.0 20.6 15.3 11.4 69.3- 6.3 6.3---- 0.0------------
1983-07-29 17.9 24.6 13.4 12.4 82.5- 5.7 1.7---- 1.2------------
1983-07-28 21.7 28.8 18.0 16.9 68.8- 4.0 3.0---- 0.0------------
1983-07-27 23.2 35.6 9.3 8.4 56.5- 4.0 3.3---- 0.0------------
1983-07-26 21.0 30.8 7.4 5.9 54.0- 0.3 0.7---- 0.0------------
1983-07-25 18.8 26.6 7.0 5.4 64.0- 1.7 2.7---- 0.0------------
1983-07-24 17.7 23.9 9.7 8.4 70.3- 2.3 2.0---- 0.0------------
1983-07-23 19.3 26.0 10.0 9.1 66.5- 4.0 4.7---- 0.0------------
1983-07-22 15.2 18.1 12.6 10.4 83.0- 8.0 5.0---- 0.3------------
1983-07-21 14.9 18.6 10.0 9.2 60.0- 4.3 3.7---- 0.1------------
1983-07-20 14.5 21.1 11.5 11.9 68.3- 7.7 7.0---- 0.0------------
1983-07-19 21.2 29.5 18.2 17.7 78.5- 7.3 4.7---- 0.8------------
1983-07-18 23.3 35.0 11.0 10.9 61.5- 7.3 3.3---- 16.5------------
1983-07-17 19.9 27.0 10.8 9.9 63.0- 2.7 2.7---- 0.0------------
1983-07-16 21.0 26.0 17.0 14.9 72.0- 7.7 3.3---- 5.4------------
1983-07-15 21.0 27.2 11.7 9.4 58.8- 4.7 3.7---- 0.0------------
1983-07-14 21.2 26.6 16.2 15.2 63.3- 5.3 4.0---- 0.0------------
1983-07-13 19.3 27.1 13.6 10.9 79.5- 7.3 5.0---- 0.0------------
1983-07-12 23.8 31.8 13.9 11.4 61.8- 6.0 6.3---- 0.0------------
1983-07-11 23.0 30.6 12.6 10.9 63.8- 6.3 3.0---- 0.0------------
1983-07-10 24.3 32.0 14.4 15.2 56.8- 5.0 2.7---- 0.2------------
1983-07-09 23.6 31.5 9.0 6.7 45.0- 3.0 3.3---- 0.0------------
1983-07-08 22.0 30.2 9.0 11.6 43.5- 0.0 4.0---- 0.0------------
1983-07-07 23.6 30.0 15.6 12.6 50.5- 1.3 3.7---- 0.0------------
1983-07-06 22.1 30.6 10.0 8.2 60.8- 0.3 3.0---- 0.0------------
1983-07-05 18.6 27.0 6.7 4.3 64.5- 3.3 3.0---- 0.0------------
1983-07-04 18.1 24.6 9.2 7.1 69.3- 6.3 3.3---- 0.0------------
1983-07-03 18.1 25.1 7.8 5.7 63.3- 7.3 1.0---- 0.0------------
1983-07-02 17.5 22.9 9.9 6.3 61.0- 3.7 2.0---- 0.0------------
1983-07-01 17.8 24.8 10.5 8.6 72.3- 7.3 4.3---- 0.0------------
1983-06-30 19.0 24.4 11.5 9.4 61.3- 7.3 3.0---- 0.0------------
1983-06-29 13.8 19.5 6.9 5.1 69.5- 4.7 3.7---- 0.0------------
1983-06-28 14.2 18.4 11.2 9.6 69.3- 5.7 5.0---- 0.0------------
1983-06-27 17.2 23.3 13.6 12.6 83.3- 8.0 3.3---- 3.4------------
1983-06-26 18.2 25.0 7.2 11.1 59.3- 5.7 3.0---- 6.2------------
1983-06-25 18.2 27.6 7.3 14.8 70.5- 3.3 2.0---- 0.0------------
1983-06-24 19.2 29.6 4.3 1.8 50.3- 0.0 2.0---- 0.0------------
1983-06-23 16.2 25.4 2.9 0.4 54.0- 0.3 1.7---- 0.0------------
1983-06-22 15.8 25.7 6.7 4.3 52.3- 0.0 3.3---- 0.0------------
1983-06-21 19.1 27.7 9.3 7.7 60.0- 3.0 3.3---- 0.0------------
1983-06-20 19.8 27.5 7.4 4.4 47.5- 0.3 3.3---- 0.0------------
1983-06-19 17.3 24.7 6.2 3.5 53.0- 2.0 2.7---- 0.0------------
1983-06-18 14.3 17.5 9.4 8.0 79.0- 8.0 2.7---- 0.0------------
1983-06-17 13.4 16.5 9.7 8.6 64.8- 7.7 4.0---- 0.0------------
1983-06-16 12.5 17.0 9.2 8.2 74.5- 6.0 5.3---- 0.0------------
414.6 ms

 

Źródłem pochodzenia danych jest Instytut Meteorologii i Gospodarki Wodnej – Państwowy Instytut Badawczy. Dane Instytutu Meteorologii i Gospodarki Wodnej – Państwowego Instytutu Badawczego zostały przetworzone.

Dane źródłowe można odnaleźć na stronie https://dane.imgw.pl